sensor_id;sensor_type;location;lat;lon;timestamp;P1;durP1;ratioP1;P2;durP2;ratioP2
2396;SDS011;1209;48.410;9.054;2024-03-02T00:01:47;10.70;;;6.27;;
2396;SDS011;1209;48.410;9.054;2024-03-02T00:04:12;10.93;;;6.63;;
2396;SDS011;1209;48.410;9.054;2024-03-02T00:06:38;13.13;;;7.67;;
2396;SDS011;1209;48.410;9.054;2024-03-02T00:09:03;11.87;;;7.83;;
2396;SDS011;1209;48.410;9.054;2024-03-02T00:11:28;11.27;;;8.27;;
2396;SDS011;1209;48.410;9.054;2024-03-02T00:13:54;12.67;;;8.10;;
2396;SDS011;1209;48.410;9.054;2024-03-02T00:16:19;10.93;;;7.10;;
2396;SDS011;1209;48.410;9.054;2024-03-02T00:18:45;14.00;;;7.60;;
2396;SDS011;1209;48.410;9.054;2024-03-02T00:21:10;17.87;;;8.60;;
2396;SDS011;1209;48.410;9.054;2024-03-02T00:23:36;13.10;;;7.90;;
2396;SDS011;1209;48.410;9.054;2024-03-02T00:26:02;14.90;;;8.50;;
2396;SDS011;1209;48.410;9.054;2024-03-02T00:28:29;13.00;;;8.50;;
2396;SDS011;1209;48.410;9.054;2024-03-02T00:31:03;12.67;;;8.40;;
2396;SDS011;1209;48.410;9.054;2024-03-02T00:33:31;13.23;;;8.37;;
2396;SDS011;1209;48.410;9.054;2024-03-02T00:35:58;16.30;;;9.87;;
2396;SDS011;1209;48.410;9.054;2024-03-02T00:38:24;11.40;;;7.93;;
2396;SDS011;1209;48.410;9.054;2024-03-02T00:40:50;12.43;;;8.37;;
2396;SDS011;1209;48.410;9.054;2024-03-02T00:45:59;13.40;;;8.40;;
2396;SDS011;1209;48.410;9.054;2024-03-02T00:48:25;12.07;;;7.20;;
2396;SDS011;1209;48.410;9.054;2024-03-02T00:50:52;11.00;;;7.50;;
2396;SDS011;1209;48.410;9.054;2024-03-02T00:53:17;12.67;;;7.73;;
2396;SDS011;1209;48.410;9.054;2024-03-02T00:55:48;11.80;;;7.67;;
2396;SDS011;1209;48.410;9.054;2024-03-02T00:58:14;15.27;;;8.57;;
2396;SDS011;1209;48.410;9.054;2024-03-02T01:00:39;11.27;;;7.30;;
2396;SDS011;1209;48.410;9.054;2024-03-02T01:03:04;11.07;;;7.00;;
2396;SDS011;1209;48.410;9.054;2024-03-02T01:05:29;10.23;;;6.57;;
2396;SDS011;1209;48.410;9.054;2024-03-02T01:07:55;11.97;;;7.50;;
2396;SDS011;1209;48.410;9.054;2024-03-02T01:10:20;11.10;;;7.13;;
2396;SDS011;1209;48.410;9.054;2024-03-02T01:12:45;8.70;;;6.20;;
2396;SDS011;1209;48.410;9.054;2024-03-02T01:15:10;11.43;;;6.90;;
2396;SDS011;1209;48.410;9.054;2024-03-02T01:17:36;13.73;;;6.60;;
2396;SDS011;1209;48.410;9.054;2024-03-02T01:20:01;13.33;;;7.70;;
2396;SDS011;1209;48.410;9.054;2024-03-02T01:22:27;10.47;;;6.20;;
2396;SDS011;1209;48.410;9.054;2024-03-02T01:24:52;11.33;;;6.77;;
2396;SDS011;1209;48.410;9.054;2024-03-02T01:27:17;11.40;;;7.40;;
2396;SDS011;1209;48.410;9.054;2024-03-02T01:29:43;12.90;;;6.80;;
2396;SDS011;1209;48.410;9.054;2024-03-02T01:32:09;13.40;;;7.60;;
2396;SDS011;1209;48.410;9.054;2024-03-02T01:34:34;11.63;;;7.40;;
2396;SDS011;1209;48.410;9.054;2024-03-02T01:36:59;10.20;;;7.40;;
2396;SDS011;1209;48.410;9.054;2024-03-02T01:39:24;14.37;;;7.57;;
2396;SDS011;1209;48.410;9.054;2024-03-02T01:41:50;12.70;;;7.67;;
2396;SDS011;1209;48.410;9.054;2024-03-02T01:44:15;12.13;;;7.70;;
2396;SDS011;1209;48.410;9.054;2024-03-02T01:46:40;13.60;;;8.00;;
2396;SDS011;1209;48.410;9.054;2024-03-02T01:49:06;13.07;;;8.20;;
2396;SDS011;1209;48.410;9.054;2024-03-02T01:51:31;11.43;;;6.93;;
2396;SDS011;1209;48.410;9.054;2024-03-02T01:53:57;12.50;;;6.90;;
2396;SDS011;1209;48.410;9.054;2024-03-02T01:56:22;14.63;;;7.53;;
2396;SDS011;1209;48.410;9.054;2024-03-02T01:58:48;10.90;;;7.00;;
2396;SDS011;1209;48.410;9.054;2024-03-02T02:01:13;12.03;;;7.60;;
2396;SDS011;1209;48.410;9.054;2024-03-02T02:03:39;13.53;;;7.70;;
2396;SDS011;1209;48.410;9.054;2024-03-02T02:06:05;12.80;;;7.53;;
2396;SDS011;1209;48.410;9.054;2024-03-02T02:08:32;11.90;;;6.60;;
2396;SDS011;1209;48.410;9.054;2024-03-02T02:10:57;12.10;;;7.10;;
2396;SDS011;1209;48.410;9.054;2024-03-02T02:13:22;11.53;;;7.10;;
2396;SDS011;1209;48.410;9.054;2024-03-02T02:15:48;12.73;;;7.87;;
2396;SDS011;1209;48.410;9.054;2024-03-02T02:18:13;14.93;;;8.67;;
2396;SDS011;1209;48.410;9.054;2024-03-02T02:20:38;12.00;;;7.33;;
2396;SDS011;1209;48.410;9.054;2024-03-02T02:23:04;14.50;;;7.80;;
2396;SDS011;1209;48.410;9.054;2024-03-02T02:25:30;11.10;;;7.07;;
2396;SDS011;1209;48.410;9.054;2024-03-02T02:27:56;16.20;;;8.27;;
2396;SDS011;1209;48.410;9.054;2024-03-02T02:30:31;14.40;;;7.10;;
2396;SDS011;1209;48.410;9.054;2024-03-02T02:32:58;13.93;;;7.90;;
2396;SDS011;1209;48.410;9.054;2024-03-02T02:35:23;14.10;;;8.40;;
2396;SDS011;1209;48.410;9.054;2024-03-02T02:37:49;14.23;;;7.33;;
2396;SDS011;1209;48.410;9.054;2024-03-02T02:40:15;14.33;;;7.73;;
2396;SDS011;1209;48.410;9.054;2024-03-02T02:42:41;15.07;;;7.77;;
2396;SDS011;1209;48.410;9.054;2024-03-02T02:45:06;10.00;;;7.30;;
2396;SDS011;1209;48.410;9.054;2024-03-02T02:47:32;10.80;;;6.83;;
2396;SDS011;1209;48.410;9.054;2024-03-02T02:50:00;15.10;;;7.70;;
2396;SDS011;1209;48.410;9.054;2024-03-02T02:52:30;14.53;;;7.10;;
2396;SDS011;1209;48.410;9.054;2024-03-02T02:55:00;15.40;;;8.07;;
2396;SDS011;1209;48.410;9.054;2024-03-02T02:57:27;12.03;;;6.70;;
2396;SDS011;1209;48.410;9.054;2024-03-02T02:59:55;10.97;;;7.10;;
2396;SDS011;1209;48.410;9.054;2024-03-02T03:02:20;12.50;;;7.30;;
2396;SDS011;1209;48.410;9.054;2024-03-02T03:04:45;11.67;;;6.90;;
2396;SDS011;1209;48.410;9.054;2024-03-02T03:07:10;11.47;;;6.60;;
2396;SDS011;1209;48.410;9.054;2024-03-02T03:09:37;13.70;;;7.00;;
2396;SDS011;1209;48.410;9.054;2024-03-02T03:12:03;11.83;;;6.80;;
2396;SDS011;1209;48.410;9.054;2024-03-02T03:14:29;13.30;;;7.50;;
2396;SDS011;1209;48.410;9.054;2024-03-02T03:16:54;11.30;;;6.80;;
2396;SDS011;1209;48.410;9.054;2024-03-02T03:19:19;15.00;;;7.70;;
2396;SDS011;1209;48.410;9.054;2024-03-02T03:21:45;10.10;;;6.50;;
2396;SDS011;1209;48.410;9.054;2024-03-02T03:24:10;8.50;;;5.53;;
2396;SDS011;1209;48.410;9.054;2024-03-02T03:26:35;12.40;;;7.10;;
2396;SDS011;1209;48.410;9.054;2024-03-02T03:29:01;12.13;;;6.87;;
2396;SDS011;1209;48.410;9.054;2024-03-02T03:31:27;7.97;;;6.27;;
2396;SDS011;1209;48.410;9.054;2024-03-02T03:33:53;12.67;;;6.93;;
2396;SDS011;1209;48.410;9.054;2024-03-02T03:36:18;8.40;;;6.10;;
2396;SDS011;1209;48.410;9.054;2024-03-02T03:38:43;10.20;;;6.03;;
2396;SDS011;1209;48.410;9.054;2024-03-02T03:41:08;11.73;;;6.60;;
2396;SDS011;1209;48.410;9.054;2024-03-02T03:43:35;9.10;;;6.40;;
2396;SDS011;1209;48.410;9.054;2024-03-02T03:46:00;15.03;;;7.97;;
2396;SDS011;1209;48.410;9.054;2024-03-02T03:48:27;11.10;;;7.20;;
2396;SDS011;1209;48.410;9.054;2024-03-02T03:50:55;12.77;;;7.30;;
2396;SDS011;1209;48.410;9.054;2024-03-02T03:53:21;9.47;;;5.97;;
2396;SDS011;1209;48.410;9.054;2024-03-02T03:55:47;10.83;;;6.47;;
2396;SDS011;1209;48.410;9.054;2024-03-02T03:58:14;11.60;;;6.90;;
2396;SDS011;1209;48.410;9.054;2024-03-02T04:00:41;12.07;;;7.07;;
2396;SDS011;1209;48.410;9.054;2024-03-02T04:03:06;9.00;;;6.17;;
2396;SDS011;1209;48.410;9.054;2024-03-02T04:05:32;8.60;;;5.03;;
2396;SDS011;1209;48.410;9.054;2024-03-02T04:07:57;10.77;;;6.60;;
2396;SDS011;1209;48.410;9.054;2024-03-02T04:10:22;11.17;;;6.37;;
2396;SDS011;1209;48.410;9.054;2024-03-02T04:12:49;10.83;;;6.43;;
2396;SDS011;1209;48.410;9.054;2024-03-02T04:15:15;8.43;;;6.33;;
2396;SDS011;1209;48.410;9.054;2024-03-02T04:17:41;7.30;;;5.90;;
2396;SDS011;1209;48.410;9.054;2024-03-02T04:20:06;14.07;;;6.30;;
2396;SDS011;1209;48.410;9.054;2024-03-02T04:22:34;10.23;;;6.50;;
2396;SDS011;1209;48.410;9.054;2024-03-02T04:25:00;19.77;;;6.30;;
2396;SDS011;1209;48.410;9.054;2024-03-02T04:27:26;8.73;;;5.93;;
2396;SDS011;1209;48.410;9.054;2024-03-02T04:29:51;9.30;;;5.90;;
2396;SDS011;1209;48.410;9.054;2024-03-02T04:32:17;6.37;;;4.50;;
2396;SDS011;1209;48.410;9.054;2024-03-02T04:34:42;9.83;;;5.30;;
2396;SDS011;1209;48.410;9.054;2024-03-02T04:37:08;11.13;;;6.43;;
2396;SDS011;1209;48.410;9.054;2024-03-02T04:39:34;10.87;;;6.27;;
2396;SDS011;1209;48.410;9.054;2024-03-02T04:42:00;10.57;;;6.60;;
2396;SDS011;1209;48.410;9.054;2024-03-02T04:44:25;9.13;;;5.70;;
2396;SDS011;1209;48.410;9.054;2024-03-02T04:46:51;11.00;;;6.77;;
2396;SDS011;1209;48.410;9.054;2024-03-02T04:49:16;11.50;;;6.43;;
2396;SDS011;1209;48.410;9.054;2024-03-02T04:51:41;10.40;;;5.90;;
2396;SDS011;1209;48.410;9.054;2024-03-02T04:54:06;9.93;;;5.10;;
2396;SDS011;1209;48.410;9.054;2024-03-02T04:56:32;11.13;;;5.77;;
2396;SDS011;1209;48.410;9.054;2024-03-02T04:58:57;9.00;;;6.17;;
2396;SDS011;1209;48.410;9.054;2024-03-02T05:01:22;7.70;;;5.97;;
2396;SDS011;1209;48.410;9.054;2024-03-02T05:03:48;10.73;;;6.30;;
2396;SDS011;1209;48.410;9.054;2024-03-02T05:06:13;8.73;;;6.30;;
2396;SDS011;1209;48.410;9.054;2024-03-02T05:08:38;8.97;;;5.10;;
2396;SDS011;1209;48.410;9.054;2024-03-02T05:11:04;11.30;;;5.80;;
2396;SDS011;1209;48.410;9.054;2024-03-02T05:13:47;9.30;;;5.53;;
2396;SDS011;1209;48.410;9.054;2024-03-02T05:16:13;7.63;;;4.67;;
2396;SDS011;1209;48.410;9.054;2024-03-02T05:18:38;9.53;;;5.10;;
2396;SDS011;1209;48.410;9.054;2024-03-02T05:21:03;8.80;;;4.87;;
2396;SDS011;1209;48.410;9.054;2024-03-02T05:23:29;11.20;;;5.40;;
2396;SDS011;1209;48.410;9.054;2024-03-02T05:25:54;7.50;;;5.43;;
2396;SDS011;1209;48.410;9.054;2024-03-02T05:28:19;7.67;;;5.60;;
2396;SDS011;1209;48.410;9.054;2024-03-02T05:30:45;6.17;;;5.50;;
2396;SDS011;1209;48.410;9.054;2024-03-02T05:33:11;7.87;;;5.27;;
2396;SDS011;1209;48.410;9.054;2024-03-02T05:35:36;10.30;;;5.30;;
2396;SDS011;1209;48.410;9.054;2024-03-02T05:38:01;9.17;;;5.93;;
2396;SDS011;1209;48.410;9.054;2024-03-02T05:40:27;10.77;;;5.90;;
2396;SDS011;1209;48.410;9.054;2024-03-02T05:42:52;9.47;;;5.80;;
2396;SDS011;1209;48.410;9.054;2024-03-02T05:45:17;7.70;;;4.67;;
2396;SDS011;1209;48.410;9.054;2024-03-02T05:47:43;9.47;;;6.40;;
2396;SDS011;1209;48.410;9.054;2024-03-02T05:50:08;9.00;;;5.80;;
2396;SDS011;1209;48.410;9.054;2024-03-02T05:52:34;6.60;;;4.80;;
2396;SDS011;1209;48.410;9.054;2024-03-02T05:54:59;9.30;;;6.13;;
2396;SDS011;1209;48.410;9.054;2024-03-02T05:57:24;11.10;;;5.37;;
2396;SDS011;1209;48.410;9.054;2024-03-02T06:00:08;7.47;;;4.90;;
2396;SDS011;1209;48.410;9.054;2024-03-02T06:02:34;7.37;;;5.23;;
2396;SDS011;1209;48.410;9.054;2024-03-02T06:05:00;7.77;;;5.37;;
2396;SDS011;1209;48.410;9.054;2024-03-02T06:07:25;9.70;;;6.30;;
2396;SDS011;1209;48.410;9.054;2024-03-02T06:09:50;8.10;;;5.73;;
2396;SDS011;1209;48.410;9.054;2024-03-02T06:12:17;13.93;;;8.10;;
2396;SDS011;1209;48.410;9.054;2024-03-02T06:14:43;14.50;;;7.13;;
2396;SDS011;1209;48.410;9.054;2024-03-02T06:17:08;19.00;;;8.40;;
2396;SDS011;1209;48.410;9.054;2024-03-02T06:19:33;12.53;;;6.80;;
2396;SDS011;1209;48.410;9.054;2024-03-02T06:21:58;12.53;;;7.40;;
2396;SDS011;1209;48.410;9.054;2024-03-02T06:24:24;10.57;;;6.47;;
2396;SDS011;1209;48.410;9.054;2024-03-02T06:26:51;10.47;;;6.53;;
2396;SDS011;1209;48.410;9.054;2024-03-02T06:29:17;13.63;;;6.87;;
2396;SDS011;1209;48.410;9.054;2024-03-02T06:31:42;10.90;;;6.07;;
2396;SDS011;1209;48.410;9.054;2024-03-02T06:34:07;9.17;;;6.37;;
2396;SDS011;1209;48.410;9.054;2024-03-02T06:36:33;16.17;;;8.97;;
2396;SDS011;1209;48.410;9.054;2024-03-02T06:38:59;13.00;;;7.80;;
2396;SDS011;1209;48.410;9.054;2024-03-02T06:41:24;11.17;;;6.03;;
2396;SDS011;1209;48.410;9.054;2024-03-02T06:43:51;14.10;;;7.43;;
2396;SDS011;1209;48.410;9.054;2024-03-02T06:46:24;12.83;;;7.47;;
2396;SDS011;1209;48.410;9.054;2024-03-02T06:48:49;14.17;;;6.37;;
2396;SDS011;1209;48.410;9.054;2024-03-02T06:51:14;11.53;;;7.40;;
2396;SDS011;1209;48.410;9.054;2024-03-02T06:53:40;10.07;;;6.87;;
2396;SDS011;1209;48.410;9.054;2024-03-02T06:56:06;8.37;;;5.47;;
2396;SDS011;1209;48.410;9.054;2024-03-02T06:58:32;14.27;;;7.80;;
2396;SDS011;1209;48.410;9.054;2024-03-02T07:00:57;14.30;;;9.10;;
2396;SDS011;1209;48.410;9.054;2024-03-02T07:03:23;9.70;;;6.53;;
2396;SDS011;1209;48.410;9.054;2024-03-02T07:05:48;15.70;;;8.30;;
2396;SDS011;1209;48.410;9.054;2024-03-02T07:08:13;11.90;;;7.03;;
2396;SDS011;1209;48.410;9.054;2024-03-02T07:10:39;20.73;;;8.57;;
2396;SDS011;1209;48.410;9.054;2024-03-02T07:13:04;15.37;;;9.00;;
2396;SDS011;1209;48.410;9.054;2024-03-02T07:15:29;17.90;;;8.10;;
2396;SDS011;1209;48.410;9.054;2024-03-02T07:18:13;19.50;;;10.60;;
2396;SDS011;1209;48.410;9.054;2024-03-02T07:20:38;16.00;;;8.97;;
2396;SDS011;1209;48.410;9.054;2024-03-02T07:23:04;15.50;;;10.20;;
2396;SDS011;1209;48.410;9.054;2024-03-02T07:25:30;16.40;;;8.83;;
2396;SDS011;1209;48.410;9.054;2024-03-02T07:27:55;13.83;;;9.30;;
2396;SDS011;1209;48.410;9.054;2024-03-02T07:30:21;18.33;;;9.93;;
2396;SDS011;1209;48.410;9.054;2024-03-02T07:32:46;22.33;;;11.87;;
2396;SDS011;1209;48.410;9.054;2024-03-02T07:35:14;17.67;;;10.70;;
2396;SDS011;1209;48.410;9.054;2024-03-02T07:37:43;34.80;;;19.53;;
2396;SDS011;1209;48.410;9.054;2024-03-02T07:40:09;19.30;;;11.10;;
2396;SDS011;1209;48.410;9.054;2024-03-02T07:42:36;15.30;;;10.30;;
2396;SDS011;1209;48.410;9.054;2024-03-02T07:45:03;47.53;;;26.13;;
2396;SDS011;1209;48.410;9.054;2024-03-02T07:47:29;54.90;;;32.70;;
2396;SDS011;1209;48.410;9.054;2024-03-02T07:49:55;152.90;;;73.60;;
2396;SDS011;1209;48.410;9.054;2024-03-02T07:52:20;69.60;;;39.60;;
2396;SDS011;1209;48.410;9.054;2024-03-02T07:54:45;42.90;;;24.63;;
2396;SDS011;1209;48.410;9.054;2024-03-02T07:57:11;23.80;;;12.73;;
2396;SDS011;1209;48.410;9.054;2024-03-02T07:59:36;19.63;;;10.43;;
2396;SDS011;1209;48.410;9.054;2024-03-02T08:02:02;14.30;;;8.17;;
2396;SDS011;1209;48.410;9.054;2024-03-02T08:04:28;13.20;;;8.30;;
2396;SDS011;1209;48.410;9.054;2024-03-02T08:06:53;13.60;;;9.00;;
2396;SDS011;1209;48.410;9.054;2024-03-02T08:09:19;14.63;;;8.27;;
2396;SDS011;1209;48.410;9.054;2024-03-02T08:11:45;11.07;;;7.87;;
2396;SDS011;1209;48.410;9.054;2024-03-02T08:14:10;11.97;;;8.03;;
2396;SDS011;1209;48.410;9.054;2024-03-02T08:16:35;15.80;;;10.90;;
2396;SDS011;1209;48.410;9.054;2024-03-02T08:19:01;15.03;;;9.33;;
2396;SDS011;1209;48.410;9.054;2024-03-02T08:21:26;15.47;;;8.77;;
2396;SDS011;1209;48.410;9.054;2024-03-02T08:23:55;15.37;;;9.07;;
2396;SDS011;1209;48.410;9.054;2024-03-02T08:26:21;15.83;;;7.60;;
2396;SDS011;1209;48.410;9.054;2024-03-02T08:28:47;10.90;;;7.47;;
2396;SDS011;1209;48.410;9.054;2024-03-02T08:31:12;12.40;;;7.50;;
2396;SDS011;1209;48.410;9.054;2024-03-02T08:33:37;13.30;;;8.03;;
2396;SDS011;1209;48.410;9.054;2024-03-02T08:36:02;13.50;;;9.13;;
2396;SDS011;1209;48.410;9.054;2024-03-02T08:38:28;13.07;;;8.43;;
2396;SDS011;1209;48.410;9.054;2024-03-02T08:40:54;18.53;;;9.50;;
2396;SDS011;1209;48.410;9.054;2024-03-02T08:43:19;12.30;;;7.33;;
2396;SDS011;1209;48.410;9.054;2024-03-02T08:45:45;12.47;;;7.83;;
2396;SDS011;1209;48.410;9.054;2024-03-02T08:48:12;17.20;;;8.50;;
2396;SDS011;1209;48.410;9.054;2024-03-02T08:50:37;25.10;;;13.90;;
2396;SDS011;1209;48.410;9.054;2024-03-02T08:53:06;12.57;;;8.50;;
2396;SDS011;1209;48.410;9.054;2024-03-02T08:55:31;8.50;;;6.53;;
2396;SDS011;1209;48.410;9.054;2024-03-02T08:57:56;10.10;;;6.70;;
2396;SDS011;1209;48.410;9.054;2024-03-02T09:00:22;10.27;;;8.10;;
2396;SDS011;1209;48.410;9.054;2024-03-02T09:02:48;19.20;;;13.23;;
2396;SDS011;1209;48.410;9.054;2024-03-02T09:05:13;7.40;;;5.60;;
2396;SDS011;1209;48.410;9.054;2024-03-02T09:07:38;7.60;;;5.23;;
2396;SDS011;1209;48.410;9.054;2024-03-02T09:10:04;6.97;;;4.60;;
2396;SDS011;1209;48.410;9.054;2024-03-02T09:12:33;5.70;;;4.47;;
2396;SDS011;1209;48.410;9.054;2024-03-02T09:15:02;7.50;;;4.13;;
2396;SDS011;1209;48.410;9.054;2024-03-02T09:17:28;4.53;;;4.10;;
2396;SDS011;1209;48.410;9.054;2024-03-02T09:19:54;5.07;;;3.73;;
2396;SDS011;1209;48.410;9.054;2024-03-02T09:22:19;7.17;;;5.07;;
2396;SDS011;1209;48.410;9.054;2024-03-02T09:24:44;9.57;;;6.20;;
2396;SDS011;1209;48.410;9.054;2024-03-02T09:27:10;8.30;;;5.50;;
2396;SDS011;1209;48.410;9.054;2024-03-02T09:29:36;6.13;;;5.23;;
2396;SDS011;1209;48.410;9.054;2024-03-02T09:32:01;9.13;;;6.10;;
2396;SDS011;1209;48.410;9.054;2024-03-02T09:34:26;10.30;;;6.47;;
2396;SDS011;1209;48.410;9.054;2024-03-02T09:36:52;10.47;;;6.30;;
2396;SDS011;1209;48.410;9.054;2024-03-02T09:39:17;6.87;;;5.27;;
2396;SDS011;1209;48.410;9.054;2024-03-02T09:41:43;8.33;;;6.70;;
2396;SDS011;1209;48.410;9.054;2024-03-02T09:44:09;9.37;;;5.20;;
2396;SDS011;1209;48.410;9.054;2024-03-02T09:46:35;5.30;;;4.30;;
2396;SDS011;1209;48.410;9.054;2024-03-02T09:49:01;6.47;;;3.90;;
2396;SDS011;1209;48.410;9.054;2024-03-02T09:51:27;6.10;;;4.40;;
2396;SDS011;1209;48.410;9.054;2024-03-02T09:53:52;7.53;;;5.60;;
2396;SDS011;1209;48.410;9.054;2024-03-02T09:56:20;6.47;;;5.23;;
2396;SDS011;1209;48.410;9.054;2024-03-02T09:58:46;6.60;;;4.50;;
2396;SDS011;1209;48.410;9.054;2024-03-02T10:01:12;5.60;;;4.70;;
2396;SDS011;1209;48.410;9.054;2024-03-02T10:03:37;6.70;;;4.90;;
2396;SDS011;1209;48.410;9.054;2024-03-02T10:06:23;6.73;;;5.33;;
2396;SDS011;1209;48.410;9.054;2024-03-02T10:08:49;10.00;;;6.23;;
2396;SDS011;1209;48.410;9.054;2024-03-02T10:11:31;6.33;;;4.97;;
2396;SDS011;1209;48.410;9.054;2024-03-02T10:14:07;6.80;;;5.17;;
2396;SDS011;1209;48.410;9.054;2024-03-02T10:16:37;11.37;;;5.00;;
2396;SDS011;1209;48.410;9.054;2024-03-02T10:19:19;6.23;;;5.30;;
2396;SDS011;1209;48.410;9.054;2024-03-02T10:21:46;6.80;;;5.10;;
2396;SDS011;1209;48.410;9.054;2024-03-02T10:24:14;6.30;;;5.00;;
2396;SDS011;1209;48.410;9.054;2024-03-02T10:26:39;6.57;;;5.00;;
2396;SDS011;1209;48.410;9.054;2024-03-02T10:29:06;5.03;;;4.53;;
2396;SDS011;1209;48.410;9.054;2024-03-02T10:31:33;7.03;;;5.63;;
2396;SDS011;1209;48.410;9.054;2024-03-02T10:33:58;8.30;;;4.77;;
2396;SDS011;1209;48.410;9.054;2024-03-02T10:36:25;6.07;;;4.87;;
2396;SDS011;1209;48.410;9.054;2024-03-02T10:38:50;6.83;;;5.10;;
2396;SDS011;1209;48.410;9.054;2024-03-02T10:41:19;8.00;;;4.70;;
2396;SDS011;1209;48.410;9.054;2024-03-02T10:43:49;5.90;;;4.83;;
2396;SDS011;1209;48.410;9.054;2024-03-02T10:46:18;4.73;;;4.30;;
2396;SDS011;1209;48.410;9.054;2024-03-02T10:48:44;4.60;;;3.37;;
2396;SDS011;1209;48.410;9.054;2024-03-02T10:51:11;5.80;;;3.90;;
2396;SDS011;1209;48.410;9.054;2024-03-02T10:53:36;4.60;;;3.50;;
2396;SDS011;1209;48.410;9.054;2024-03-02T10:56:02;6.70;;;4.37;;
2396;SDS011;1209;48.410;9.054;2024-03-02T10:58:32;6.00;;;4.43;;
2396;SDS011;1209;48.410;9.054;2024-03-02T11:01:02;4.37;;;3.67;;
2396;SDS011;1209;48.410;9.054;2024-03-02T11:03:33;4.03;;;3.30;;
2396;SDS011;1209;48.410;9.054;2024-03-02T11:06:01;4.77;;;3.77;;
2396;SDS011;1209;48.410;9.054;2024-03-02T11:08:32;4.17;;;3.60;;
2396;SDS011;1209;48.410;9.054;2024-03-02T11:11:02;4.03;;;3.50;;
2396;SDS011;1209;48.410;9.054;2024-03-02T11:13:32;2.07;;;1.70;;
2396;SDS011;1209;48.410;9.054;2024-03-02T11:15:59;1.50;;;1.40;;
2396;SDS011;1209;48.410;9.054;2024-03-02T11:18:30;2.50;;;1.90;;
2396;SDS011;1209;48.410;9.054;2024-03-02T11:20:57;1.77;;;1.67;;
2396;SDS011;1209;48.410;9.054;2024-03-02T11:23:33;3.53;;;3.13;;
2396;SDS011;1209;48.410;9.054;2024-03-02T11:26:18;4.13;;;2.07;;
2396;SDS011;1209;48.410;9.054;2024-03-02T11:28:50;2.40;;;2.07;;
2396;SDS011;1209;48.410;9.054;2024-03-02T11:31:15;1.80;;;1.70;;
2396;SDS011;1209;48.410;9.054;2024-03-02T11:33:41;3.97;;;1.33;;
2396;SDS011;1209;48.410;9.054;2024-03-02T11:36:07;1.13;;;1.03;;
2396;SDS011;1209;48.410;9.054;2024-03-02T11:38:33;3.17;;;1.40;;
2396;SDS011;1209;48.410;9.054;2024-03-02T11:40:59;1.47;;;1.37;;
2396;SDS011;1209;48.410;9.054;2024-03-02T11:43:27;2.10;;;1.90;;
2396;SDS011;1209;48.410;9.054;2024-03-02T11:45:57;1.53;;;1.37;;
2396;SDS011;1209;48.410;9.054;2024-03-02T11:48:29;1.10;;;1.00;;
2396;SDS011;1209;48.410;9.054;2024-03-02T11:50:54;2.57;;;2.30;;
2396;SDS011;1209;48.410;9.054;2024-03-02T11:53:23;1.10;;;1.10;;
2396;SDS011;1209;48.410;9.054;2024-03-02T11:55:49;3.33;;;1.20;;
2396;SDS011;1209;48.410;9.054;2024-03-02T11:58:15;1.07;;;1.00;;
2396;SDS011;1209;48.410;9.054;2024-03-02T12:00:51;1.87;;;1.20;;
2396;SDS011;1209;48.410;9.054;2024-03-02T12:03:21;1.53;;;1.30;;
2396;SDS011;1209;48.410;9.054;2024-03-02T12:05:49;0.70;;;0.70;;
2396;SDS011;1209;48.410;9.054;2024-03-02T12:08:15;0.90;;;0.90;;
2396;SDS011;1209;48.410;9.054;2024-03-02T12:10:41;1.20;;;1.10;;
2396;SDS011;1209;48.410;9.054;2024-03-02T12:13:07;1.53;;;1.20;;
2396;SDS011;1209;48.410;9.054;2024-03-02T12:15:35;1.43;;;1.30;;
2396;SDS011;1209;48.410;9.054;2024-03-02T12:18:02;3.70;;;1.40;;
2396;SDS011;1209;48.410;9.054;2024-03-02T12:20:29;2.40;;;1.27;;
2396;SDS011;1209;48.410;9.054;2024-03-02T12:22:56;1.53;;;1.20;;
2396;SDS011;1209;48.410;9.054;2024-03-02T12:25:23;1.00;;;1.00;;
2396;SDS011;1209;48.410;9.054;2024-03-02T12:27:50;1.03;;;1.03;;
2396;SDS011;1209;48.410;9.054;2024-03-02T12:30:17;1.40;;;1.30;;
2396;SDS011;1209;48.410;9.054;2024-03-02T12:32:46;1.27;;;1.20;;
2396;SDS011;1209;48.410;9.054;2024-03-02T12:35:13;0.97;;;0.97;;
2396;SDS011;1209;48.410;9.054;2024-03-02T12:37:48;1.00;;;1.00;;
2396;SDS011;1209;48.410;9.054;2024-03-02T12:40:14;1.00;;;1.00;;
2396;SDS011;1209;48.410;9.054;2024-03-02T12:42:43;1.23;;;1.13;;
2396;SDS011;1209;48.410;9.054;2024-03-02T12:45:09;1.03;;;1.00;;
2396;SDS011;1209;48.410;9.054;2024-03-02T12:47:35;1.20;;;1.10;;
2396;SDS011;1209;48.410;9.054;2024-03-02T12:50:01;1.23;;;1.13;;
2396;SDS011;1209;48.410;9.054;2024-03-02T12:52:28;1.10;;;1.00;;
2396;SDS011;1209;48.410;9.054;2024-03-02T12:54:53;1.67;;;1.20;;
2396;SDS011;1209;48.410;9.054;2024-03-02T12:57:24;1.43;;;1.30;;
2396;SDS011;1209;48.410;9.054;2024-03-02T12:59:51;2.00;;;1.10;;
2396;SDS011;1209;48.410;9.054;2024-03-02T13:02:17;1.73;;;1.63;;
2396;SDS011;1209;48.410;9.054;2024-03-02T13:04:43;1.27;;;1.27;;
2396;SDS011;1209;48.410;9.054;2024-03-02T13:07:08;1.20;;;1.20;;
2396;SDS011;1209;48.410;9.054;2024-03-02T13:09:33;1.27;;;1.17;;
2396;SDS011;1209;48.410;9.054;2024-03-02T13:12:00;0.90;;;0.90;;
2396;SDS011;1209;48.410;9.054;2024-03-02T13:14:26;1.43;;;1.03;;
2396;SDS011;1209;48.410;9.054;2024-03-02T13:16:51;1.40;;;1.30;;
2396;SDS011;1209;48.410;9.054;2024-03-02T13:19:17;2.10;;;1.67;;
2396;SDS011;1209;48.410;9.054;2024-03-02T13:21:46;1.30;;;1.20;;
2396;SDS011;1209;48.410;9.054;2024-03-02T13:24:11;1.37;;;1.27;;
2396;SDS011;1209;48.410;9.054;2024-03-02T13:26:36;1.07;;;1.07;;
2396;SDS011;1209;48.410;9.054;2024-03-02T13:29:02;1.20;;;1.10;;
2396;SDS011;1209;48.410;9.054;2024-03-02T13:31:27;1.00;;;1.00;;
2396;SDS011;1209;48.410;9.054;2024-03-02T13:33:52;1.40;;;1.30;;
2396;SDS011;1209;48.410;9.054;2024-03-02T13:36:18;1.10;;;1.00;;
2396;SDS011;1209;48.410;9.054;2024-03-02T13:38:44;1.50;;;1.30;;
2396;SDS011;1209;48.410;9.054;2024-03-02T13:41:09;1.00;;;0.93;;
2396;SDS011;1209;48.410;9.054;2024-03-02T13:43:36;1.10;;;1.07;;
2396;SDS011;1209;48.410;9.054;2024-03-02T13:46:03;2.80;;;1.70;;
2396;SDS011;1209;48.410;9.054;2024-03-02T13:48:28;1.27;;;1.17;;
2396;SDS011;1209;48.410;9.054;2024-03-02T13:50:54;1.13;;;1.13;;
2396;SDS011;1209;48.410;9.054;2024-03-02T13:53:19;1.20;;;1.10;;
2396;SDS011;1209;48.410;9.054;2024-03-02T13:55:45;1.60;;;1.50;;
2396;SDS011;1209;48.410;9.054;2024-03-02T13:58:11;1.07;;;1.00;;
2396;SDS011;1209;48.410;9.054;2024-03-02T14:00:37;2.00;;;1.70;;
2396;SDS011;1209;48.410;9.054;2024-03-02T14:03:06;1.80;;;1.30;;
2396;SDS011;1209;48.410;9.054;2024-03-02T14:05:31;1.17;;;1.17;;
2396;SDS011;1209;48.410;9.054;2024-03-02T14:07:57;0.93;;;0.83;;
2396;SDS011;1209;48.410;9.054;2024-03-02T14:10:23;0.83;;;0.83;;
2396;SDS011;1209;48.410;9.054;2024-03-02T14:12:49;1.40;;;1.30;;
2396;SDS011;1209;48.410;9.054;2024-03-02T14:15:14;1.10;;;1.00;;
2396;SDS011;1209;48.410;9.054;2024-03-02T14:17:40;1.20;;;1.10;;
2396;SDS011;1209;48.410;9.054;2024-03-02T14:20:05;0.93;;;0.93;;
2396;SDS011;1209;48.410;9.054;2024-03-02T14:22:31;1.10;;;1.00;;
2396;SDS011;1209;48.410;9.054;2024-03-02T14:24:58;1.20;;;1.10;;
2396;SDS011;1209;48.410;9.054;2024-03-02T14:27:24;0.70;;;0.70;;
2396;SDS011;1209;48.410;9.054;2024-03-02T14:29:50;1.37;;;1.37;;
2396;SDS011;1209;48.410;9.054;2024-03-02T14:32:15;1.13;;;1.13;;
2396;SDS011;1209;48.410;9.054;2024-03-02T14:34:41;0.83;;;0.83;;
2396;SDS011;1209;48.410;9.054;2024-03-02T14:37:06;2.53;;;0.97;;
2396;SDS011;1209;48.410;9.054;2024-03-02T14:39:31;1.60;;;1.00;;
2396;SDS011;1209;48.410;9.054;2024-03-02T14:41:59;1.07;;;1.00;;
2396;SDS011;1209;48.410;9.054;2024-03-02T14:44:25;1.00;;;0.90;;
2396;SDS011;1209;48.410;9.054;2024-03-02T14:46:51;0.87;;;0.87;;
2396;SDS011;1209;48.410;9.054;2024-03-02T14:49:16;1.73;;;0.90;;
2396;SDS011;1209;48.410;9.054;2024-03-02T14:51:42;1.57;;;1.10;;
2396;SDS011;1209;48.410;9.054;2024-03-02T14:54:09;0.87;;;0.87;;
2396;SDS011;1209;48.410;9.054;2024-03-02T14:56:34;0.73;;;0.73;;
2396;SDS011;1209;48.410;9.054;2024-03-02T14:58:59;1.00;;;0.83;;
2396;SDS011;1209;48.410;9.054;2024-03-02T15:01:24;0.60;;;0.60;;
2396;SDS011;1209;48.410;9.054;2024-03-02T15:03:50;0.93;;;0.90;;
2396;SDS011;1209;48.410;9.054;2024-03-02T15:06:16;0.97;;;0.90;;